Chaffee, Missouri
Current Conditions -  °F | °C
As of 3:36 AM on Monday 24 Nov 2014 (Local Time) from KCGI Reporting Station
Overcast Overcast  
Wind Chill: 57°   Ceiling: 2700
Heat Index: 57°   Visibility: 10mi
Dew Point: 54°   Wind: 17mph
Humidity: 89%   Direction: 220°SW
Pressure: 29.3"   Gusts: NA
Location:  37.18°N, 89.66°W
Report Text: KCGI 240936Z AUTO 22015KT 10SM SCT023 BKN027 OVC035 14/12 A2930 RMK AO2 RAB0858E25 P0001 T01390122 TSNO
Loading
Personal Weather Stations






























Interactive Weather Map New forecast layout! Learn more

10-Day Weather Forecast

Advertisements
Track Severe Weather on mobile